sensor_id;sensor_type;location;lat;lon;timestamp;P1;durP1;ratioP1;P2;durP2;ratioP2
45842;SDS011;31563;51.744;8.252;2023-07-22T00:02:13;2.35;;;2.00;;
45842;SDS011;31563;51.744;8.252;2023-07-22T00:04:41;2.65;;;2.20;;
45842;SDS011;31563;51.744;8.252;2023-07-22T00:07:09;2.50;;;2.10;;
45842;SDS011;31563;51.744;8.252;2023-07-22T00:09:38;2.92;;;2.42;;
45842;SDS011;31563;51.744;8.252;2023-07-22T00:12:09;2.45;;;2.25;;
45842;SDS011;31563;51.744;8.252;2023-07-22T00:17:05;2.33;;;2.13;;
45842;SDS011;31563;51.744;8.252;2023-07-22T00:19:34;2.72;;;2.20;;
45842;SDS011;31563;51.744;8.252;2023-07-22T00:22:03;2.08;;;1.88;;
45842;SDS011;31563;51.744;8.252;2023-07-22T00:24:31;2.40;;;2.20;;
45842;SDS011;31563;51.744;8.252;2023-07-22T00:27:00;2.73;;;2.50;;
45842;SDS011;31563;51.744;8.252;2023-07-22T00:29:29;2.33;;;2.13;;
45842;SDS011;31563;51.744;8.252;2023-07-22T00:34:25;2.20;;;2.00;;
45842;SDS011;31563;51.744;8.252;2023-07-22T00:36:53;2.30;;;2.10;;
45842;SDS011;31563;51.744;8.252;2023-07-22T00:39:22;2.58;;;2.33;;
45842;SDS011;31563;51.744;8.252;2023-07-22T00:41:50;3.17;;;2.20;;
45842;SDS011;31563;51.744;8.252;2023-07-22T00:44:18;2.83;;;2.20;;
45842;SDS011;31563;51.744;8.252;2023-07-22T00:46:48;3.25;;;2.20;;
45842;SDS011;31563;51.744;8.252;2023-07-22T00:49:17;3.20;;;2.60;;
45842;SDS011;31563;51.744;8.252;2023-07-22T00:51:46;2.58;;;2.38;;
45842;SDS011;31563;51.744;8.252;2023-07-22T00:54:14;2.50;;;2.30;;
45842;SDS011;31563;51.744;8.252;2023-07-22T00:56:43;3.30;;;2.30;;
45842;SDS011;31563;51.744;8.252;2023-07-22T00:59:12;2.83;;;2.30;;
45842;SDS011;31563;51.744;8.252;2023-07-22T01:01:41;1.97;;;1.83;;
45842;SDS011;31563;51.744;8.252;2023-07-22T01:04:13;2.42;;;2.22;;
45842;SDS011;31563;51.744;8.252;2023-07-22T01:06:42;2.72;;;2.53;;
45842;SDS011;31563;51.744;8.252;2023-07-22T01:09:11;2.13;;;1.87;;
45842;SDS011;31563;51.744;8.252;2023-07-22T01:11:39;2.58;;;2.38;;
45842;SDS011;31563;51.744;8.252;2023-07-22T01:14:08;2.55;;;2.10;;
45842;SDS011;31563;51.744;8.252;2023-07-22T01:16:36;3.10;;;2.20;;
45842;SDS011;31563;51.744;8.252;2023-07-22T01:19:05;2.73;;;2.23;;
45842;SDS011;31563;51.744;8.252;2023-07-22T01:21:36;2.53;;;2.33;;
45842;SDS011;31563;51.744;8.252;2023-07-22T01:24:06;2.60;;;2.40;;
45842;SDS011;31563;51.744;8.252;2023-07-22T01:26:34;2.13;;;1.92;;
45842;SDS011;31563;51.744;8.252;2023-07-22T01:29:03;3.05;;;2.75;;
45842;SDS011;31563;51.744;8.252;2023-07-22T01:31:33;2.30;;;2.10;;
45842;SDS011;31563;51.744;8.252;2023-07-22T01:34:02;2.63;;;2.42;;
45842;SDS011;31563;51.744;8.252;2023-07-22T01:36:31;3.20;;;2.30;;
45842;SDS011;31563;51.744;8.252;2023-07-22T01:38:59;2.70;;;2.40;;
45842;SDS011;31563;51.744;8.252;2023-07-22T01:41:29;2.63;;;2.30;;
45842;SDS011;31563;51.744;8.252;2023-07-22T01:43:57;2.70;;;2.50;;
45842;SDS011;31563;51.744;8.252;2023-07-22T01:46:26;3.33;;;2.78;;
45842;SDS011;31563;51.744;8.252;2023-07-22T01:48:55;2.40;;;2.20;;
45842;SDS011;31563;51.744;8.252;2023-07-22T01:51:23;2.72;;;2.53;;
45842;SDS011;31563;51.744;8.252;2023-07-22T01:53:51;3.55;;;2.33;;
45842;SDS011;31563;51.744;8.252;2023-07-22T01:56:19;3.03;;;2.80;;
45842;SDS011;31563;51.744;8.252;2023-07-22T01:58:49;3.00;;;2.70;;
45842;SDS011;31563;51.744;8.252;2023-07-22T02:01:17;2.78;;;2.58;;
45842;SDS011;31563;51.744;8.252;2023-07-22T02:03:45;2.80;;;2.50;;
45842;SDS011;31563;51.744;8.252;2023-07-22T02:06:14;2.70;;;2.50;;
45842;SDS011;31563;51.744;8.252;2023-07-22T02:08:42;2.90;;;2.65;;
45842;SDS011;31563;51.744;8.252;2023-07-22T02:11:10;3.55;;;2.60;;
45842;SDS011;31563;51.744;8.252;2023-07-22T02:13:39;2.60;;;2.40;;
45842;SDS011;31563;51.744;8.252;2023-07-22T02:16:08;3.28;;;2.97;;
45842;SDS011;31563;51.744;8.252;2023-07-22T02:18:38;3.35;;;3.05;;
45842;SDS011;31563;51.744;8.252;2023-07-22T02:21:06;3.08;;;2.78;;
45842;SDS011;31563;51.744;8.252;2023-07-22T02:23:34;2.83;;;2.60;;
45842;SDS011;31563;51.744;8.252;2023-07-22T02:26:03;2.85;;;2.50;;
45842;SDS011;31563;51.744;8.252;2023-07-22T02:28:31;2.97;;;2.70;;
45842;SDS011;31563;51.744;8.252;2023-07-22T02:31:01;2.73;;;2.30;;
45842;SDS011;31563;51.744;8.252;2023-07-22T02:33:34;2.80;;;2.40;;
45842;SDS011;31563;51.744;8.252;2023-07-22T02:36:04;2.40;;;2.20;;
45842;SDS011;31563;51.744;8.252;2023-07-22T02:38:32;2.38;;;2.17;;
45842;SDS011;31563;51.744;8.252;2023-07-22T02:41:01;3.10;;;2.80;;
45842;SDS011;31563;51.744;8.252;2023-07-22T02:43:29;2.67;;;2.23;;
45842;SDS011;31563;51.744;8.252;2023-07-22T02:45:59;3.13;;;2.38;;
45842;SDS011;31563;51.744;8.252;2023-07-22T02:48:28;2.97;;;2.65;;
45842;SDS011;31563;51.744;8.252;2023-07-22T02:51:03;2.70;;;2.50;;
45842;SDS011;31563;51.744;8.252;2023-07-22T02:53:31;3.20;;;2.42;;
45842;SDS011;31563;51.744;8.252;2023-07-22T02:56:00;2.75;;;2.47;;
45842;SDS011;31563;51.744;8.252;2023-07-22T02:58:28;2.72;;;2.53;;
45842;SDS011;31563;51.744;8.252;2023-07-22T03:00:56;2.92;;;2.72;;
45842;SDS011;31563;51.744;8.252;2023-07-22T03:03:25;3.50;;;2.70;;
45842;SDS011;31563;51.744;8.252;2023-07-22T03:05:54;2.65;;;2.45;;
45842;SDS011;31563;51.744;8.252;2023-07-22T03:08:25;3.23;;;2.30;;
45842;SDS011;31563;51.744;8.252;2023-07-22T03:10:53;3.00;;;2.70;;
45842;SDS011;31563;51.744;8.252;2023-07-22T03:13:21;2.63;;;2.42;;
45842;SDS011;31563;51.744;8.252;2023-07-22T03:15:49;3.00;;;2.42;;
45842;SDS011;31563;51.744;8.252;2023-07-22T03:18:18;3.72;;;3.00;;
45842;SDS011;31563;51.744;8.252;2023-07-22T03:20:46;3.22;;;2.83;;
45842;SDS011;31563;51.744;8.252;2023-07-22T03:23:14;2.72;;;2.53;;
45842;SDS011;31563;51.744;8.252;2023-07-22T03:25:43;2.95;;;2.70;;
45842;SDS011;31563;51.744;8.252;2023-07-22T03:28:12;3.00;;;2.80;;
45842;SDS011;31563;51.744;8.252;2023-07-22T03:30:40;2.80;;;2.42;;
45842;SDS011;31563;51.744;8.252;2023-07-22T03:33:09;2.70;;;2.50;;
45842;SDS011;31563;51.744;8.252;2023-07-22T03:35:37;2.80;;;2.60;;
45842;SDS011;31563;51.744;8.252;2023-07-22T03:38:07;2.47;;;2.28;;
45842;SDS011;31563;51.744;8.252;2023-07-22T03:40:35;3.88;;;2.72;;
45842;SDS011;31563;51.744;8.252;2023-07-22T03:43:05;2.85;;;2.65;;
45842;SDS011;31563;51.744;8.252;2023-07-22T03:45:33;3.05;;;2.75;;
45842;SDS011;31563;51.744;8.252;2023-07-22T03:48:02;2.92;;;2.72;;
45842;SDS011;31563;51.744;8.252;2023-07-22T03:50:30;2.83;;;2.50;;
45842;SDS011;31563;51.744;8.252;2023-07-22T03:52:58;3.20;;;2.90;;
45842;SDS011;31563;51.744;8.252;2023-07-22T03:55:26;2.90;;;2.70;;
45842;SDS011;31563;51.744;8.252;2023-07-22T03:57:55;3.42;;;3.05;;
45842;SDS011;31563;51.744;8.252;2023-07-22T04:00:24;2.78;;;2.58;;
45842;SDS011;31563;51.744;8.252;2023-07-22T04:02:52;3.17;;;2.88;;
45842;SDS011;31563;51.744;8.252;2023-07-22T04:05:21;3.05;;;2.85;;
45842;SDS011;31563;51.744;8.252;2023-07-22T04:07:49;3.78;;;2.65;;
45842;SDS011;31563;51.744;8.252;2023-07-22T04:10:17;5.32;;;4.82;;
45842;SDS011;31563;51.744;8.252;2023-07-22T04:12:45;7.43;;;5.90;;
45842;SDS011;31563;51.744;8.252;2023-07-22T04:15:13;4.38;;;3.97;;
45842;SDS011;31563;51.744;8.252;2023-07-22T04:17:45;4.43;;;4.03;;
45842;SDS011;31563;51.744;8.252;2023-07-22T04:20:14;4.47;;;4.07;;
45842;SDS011;31563;51.744;8.252;2023-07-22T04:22:43;4.50;;;4.10;;
45842;SDS011;31563;51.744;8.252;2023-07-22T04:25:11;4.97;;;4.20;;
45842;SDS011;31563;51.744;8.252;2023-07-22T04:27:39;3.50;;;3.17;;
45842;SDS011;31563;51.744;8.252;2023-07-22T04:30:07;4.20;;;3.90;;
45842;SDS011;31563;51.744;8.252;2023-07-22T04:32:36;4.93;;;3.97;;
45842;SDS011;31563;51.744;8.252;2023-07-22T04:35:07;4.03;;;3.67;;
45842;SDS011;31563;51.744;8.252;2023-07-22T04:37:36;4.38;;;3.97;;
45842;SDS011;31563;51.744;8.252;2023-07-22T04:40:05;4.18;;;3.53;;
45842;SDS011;31563;51.744;8.252;2023-07-22T04:42:40;3.47;;;3.15;;
45842;SDS011;31563;51.744;8.252;2023-07-22T04:45:09;4.05;;;3.60;;
45842;SDS011;31563;51.744;8.252;2023-07-22T04:47:37;4.13;;;3.75;;
45842;SDS011;31563;51.744;8.252;2023-07-22T04:50:08;4.40;;;3.60;;
45842;SDS011;31563;51.744;8.252;2023-07-22T04:52:36;4.05;;;3.65;;
45842;SDS011;31563;51.744;8.252;2023-07-22T04:55:05;3.67;;;3.38;;
45842;SDS011;31563;51.744;8.252;2023-07-22T04:57:35;4.72;;;4.13;;
45842;SDS011;31563;51.744;8.252;2023-07-22T05:00:04;4.55;;;4.15;;
45842;SDS011;31563;51.744;8.252;2023-07-22T05:02:35;3.58;;;3.28;;
45842;SDS011;31563;51.744;8.252;2023-07-22T05:05:04;3.95;;;3.65;;
45842;SDS011;31563;51.744;8.252;2023-07-22T05:07:34;3.83;;;3.43;;
45842;SDS011;31563;51.744;8.252;2023-07-22T05:12:31;4.47;;;3.90;;
45842;SDS011;31563;51.744;8.252;2023-07-22T05:14:59;4.18;;;3.60;;
45842;SDS011;31563;51.744;8.252;2023-07-22T05:17:27;3.58;;;3.28;;
45842;SDS011;31563;51.744;8.252;2023-07-22T05:19:55;3.75;;;3.45;;
45842;SDS011;31563;51.744;8.252;2023-07-22T05:22:24;5.13;;;3.80;;
45842;SDS011;31563;51.744;8.252;2023-07-22T05:24:53;3.90;;;3.47;;
45842;SDS011;31563;51.744;8.252;2023-07-22T05:27:22;3.80;;;3.50;;
45842;SDS011;31563;51.744;8.252;2023-07-22T05:29:50;3.58;;;3.28;;
45842;SDS011;31563;51.744;8.252;2023-07-22T05:32:18;4.20;;;3.80;;
45842;SDS011;31563;51.744;8.252;2023-07-22T05:34:59;3.60;;;3.30;;
45842;SDS011;31563;51.744;8.252;2023-07-22T05:37:28;3.97;;;3.60;;
45842;SDS011;31563;51.744;8.252;2023-07-22T05:39:57;3.58;;;3.28;;
45842;SDS011;31563;51.744;8.252;2023-07-22T05:42:26;3.38;;;3.08;;
45842;SDS011;31563;51.744;8.252;2023-07-22T05:44:54;4.00;;;3.60;;
45842;SDS011;31563;51.744;8.252;2023-07-22T05:47:23;3.92;;;3.45;;
45842;SDS011;31563;51.744;8.252;2023-07-22T05:49:52;3.97;;;3.67;;
45842;SDS011;31563;51.744;8.252;2023-07-22T05:52:20;3.60;;;3.30;;
45842;SDS011;31563;51.744;8.252;2023-07-22T05:54:48;3.67;;;3.35;;
45842;SDS011;31563;51.744;8.252;2023-07-22T05:57:17;4.40;;;3.03;;
45842;SDS011;31563;51.744;8.252;2023-07-22T05:59:45;4.07;;;3.67;;
45842;SDS011;31563;51.744;8.252;2023-07-22T06:02:31;3.72;;;3.42;;
45842;SDS011;31563;51.744;8.252;2023-07-22T06:05:00;3.70;;;3.25;;
45842;SDS011;31563;51.744;8.252;2023-07-22T06:07:29;3.88;;;3.50;;
45842;SDS011;31563;51.744;8.252;2023-07-22T06:09:57;3.60;;;3.30;;
45842;SDS011;31563;51.744;8.252;2023-07-22T06:12:26;4.13;;;3.72;;
45842;SDS011;31563;51.744;8.252;2023-07-22T06:14:55;3.38;;;3.17;;
45842;SDS011;31563;51.744;8.252;2023-07-22T06:17:24;4.07;;;3.67;;
45842;SDS011;31563;51.744;8.252;2023-07-22T06:19:52;4.05;;;3.65;;
45842;SDS011;31563;51.744;8.252;2023-07-22T06:22:20;3.67;;;3.38;;
45842;SDS011;31563;51.744;8.252;2023-07-22T06:24:48;3.40;;;3.10;;
45842;SDS011;31563;51.744;8.252;2023-07-22T06:27:17;3.53;;;3.22;;
45842;SDS011;31563;51.744;8.252;2023-07-22T06:29:46;3.58;;;3.28;;
45842;SDS011;31563;51.744;8.252;2023-07-22T06:32:14;4.38;;;3.60;;
45842;SDS011;31563;51.744;8.252;2023-07-22T06:34:42;3.83;;;3.53;;
45842;SDS011;31563;51.744;8.252;2023-07-22T06:37:11;3.67;;;3.38;;
45842;SDS011;31563;51.744;8.252;2023-07-22T06:39:39;3.78;;;3.45;;
45842;SDS011;31563;51.744;8.252;2023-07-22T06:42:07;3.92;;;3.63;;
45842;SDS011;31563;51.744;8.252;2023-07-22T06:44:35;3.53;;;3.22;;
45842;SDS011;31563;51.744;8.252;2023-07-22T06:47:05;3.78;;;3.47;;
45842;SDS011;31563;51.744;8.252;2023-07-22T06:49:33;3.83;;;3.50;;
45842;SDS011;31563;51.744;8.252;2023-07-22T06:52:02;3.50;;;3.20;;
45842;SDS011;31563;51.744;8.252;2023-07-22T06:54:30;3.17;;;2.97;;
45842;SDS011;31563;51.744;8.252;2023-07-22T06:56:58;3.30;;;3.00;;
45842;SDS011;31563;51.744;8.252;2023-07-22T06:59:27;3.63;;;3.13;;
45842;SDS011;31563;51.744;8.252;2023-07-22T07:01:55;3.58;;;3.28;;
45842;SDS011;31563;51.744;8.252;2023-07-22T07:04:24;6.75;;;5.25;;
45842;SDS011;31563;51.744;8.252;2023-07-22T07:06:53;11.05;;;7.82;;
45842;SDS011;31563;51.744;8.252;2023-07-22T07:09:22;9.68;;;8.35;;
45842;SDS011;31563;51.744;8.252;2023-07-22T07:11:50;12.10;;;8.40;;
45842;SDS011;31563;51.744;8.252;2023-07-22T07:14:18;10.85;;;8.82;;
45842;SDS011;31563;51.744;8.252;2023-07-22T07:16:46;8.82;;;7.95;;
45842;SDS011;31563;51.744;8.252;2023-07-22T07:19:14;9.93;;;8.20;;
45842;SDS011;31563;51.744;8.252;2023-07-22T07:21:44;11.23;;;8.30;;
45842;SDS011;31563;51.744;8.252;2023-07-22T07:24:12;9.38;;;7.30;;
45842;SDS011;31563;51.744;8.252;2023-07-22T07:26:40;7.28;;;6.03;;
45842;SDS011;31563;51.744;8.252;2023-07-22T07:29:08;6.88;;;5.65;;
45842;SDS011;31563;51.744;8.252;2023-07-22T07:31:38;7.55;;;6.85;;
45842;SDS011;31563;51.744;8.252;2023-07-22T07:34:06;8.18;;;6.75;;
45842;SDS011;31563;51.744;8.252;2023-07-22T07:36:34;7.07;;;6.32;;
45842;SDS011;31563;51.744;8.252;2023-07-22T07:39:04;7.68;;;6.00;;
45842;SDS011;31563;51.744;8.252;2023-07-22T07:41:32;6.20;;;5.60;;
45842;SDS011;31563;51.744;8.252;2023-07-22T07:44:00;6.07;;;5.43;;
45842;SDS011;31563;51.744;8.252;2023-07-22T07:46:29;6.22;;;5.53;;
45842;SDS011;31563;51.744;8.252;2023-07-22T07:48:58;6.43;;;5.32;;
45842;SDS011;31563;51.744;8.252;2023-07-22T07:51:29;5.50;;;4.95;;
45842;SDS011;31563;51.744;8.252;2023-07-22T07:56:28;7.18;;;5.95;;
45842;SDS011;31563;51.744;8.252;2023-07-22T08:01:24;6.18;;;5.03;;
45842;SDS011;31563;51.744;8.252;2023-07-22T08:03:52;5.55;;;5.05;;
45842;SDS011;31563;51.744;8.252;2023-07-22T08:06:20;5.60;;;5.10;;
45842;SDS011;31563;51.744;8.252;2023-07-22T08:08:48;5.38;;;4.72;;
45842;SDS011;31563;51.744;8.252;2023-07-22T08:11:17;5.40;;;4.90;;
45842;SDS011;31563;51.744;8.252;2023-07-22T08:13:47;5.37;;;4.63;;
45842;SDS011;31563;51.744;8.252;2023-07-22T08:16:16;5.60;;;4.45;;
45842;SDS011;31563;51.744;8.252;2023-07-22T08:18:44;5.97;;;4.45;;
45842;SDS011;31563;51.744;8.252;2023-07-22T08:21:13;4.95;;;4.45;;
45842;SDS011;31563;51.744;8.252;2023-07-22T08:23:41;4.45;;;4.05;;
45842;SDS011;31563;51.744;8.252;2023-07-22T08:26:13;4.53;;;4.13;;
45842;SDS011;31563;51.744;8.252;2023-07-22T08:28:44;7.43;;;6.72;;
45842;SDS011;31563;51.744;8.252;2023-07-22T08:31:14;8.43;;;7.63;;
45842;SDS011;31563;51.744;8.252;2023-07-22T08:33:42;9.77;;;7.20;;
45842;SDS011;31563;51.744;8.252;2023-07-22T08:36:11;8.65;;;7.60;;
45842;SDS011;31563;51.744;8.252;2023-07-22T08:38:39;7.50;;;6.72;;
45842;SDS011;31563;51.744;8.252;2023-07-22T08:41:07;8.23;;;7.18;;
45842;SDS011;31563;51.744;8.252;2023-07-22T08:43:35;7.40;;;6.70;;
45842;SDS011;31563;51.744;8.252;2023-07-22T08:46:07;6.78;;;6.18;;
45842;SDS011;31563;51.744;8.252;2023-07-22T08:48:40;6.57;;;5.97;;
45842;SDS011;31563;51.744;8.252;2023-07-22T08:51:10;6.35;;;5.82;;
45842;SDS011;31563;51.744;8.252;2023-07-22T08:53:42;7.50;;;6.25;;
45842;SDS011;31563;51.744;8.252;2023-07-22T08:56:25;6.07;;;5.47;;
45842;SDS011;31563;51.744;8.252;2023-07-22T08:58:55;5.75;;;5.20;;
45842;SDS011;31563;51.744;8.252;2023-07-22T09:01:24;5.43;;;4.82;;
45842;SDS011;31563;51.744;8.252;2023-07-22T09:03:54;8.48;;;5.75;;
45842;SDS011;31563;51.744;8.252;2023-07-22T09:06:24;6.40;;;5.80;;
45842;SDS011;31563;51.744;8.252;2023-07-22T09:08:53;6.87;;;6.20;;
45842;SDS011;31563;51.744;8.252;2023-07-22T09:13:51;6.55;;;5.95;;
45842;SDS011;31563;51.744;8.252;2023-07-22T09:16:20;6.35;;;5.75;;
45842;SDS011;31563;51.744;8.252;2023-07-22T09:18:49;6.18;;;5.57;;
45842;SDS011;31563;51.744;8.252;2023-07-22T09:21:18;6.80;;;6.10;;
45842;SDS011;31563;51.744;8.252;2023-07-22T09:26:15;8.60;;;6.15;;
45842;SDS011;31563;51.744;8.252;2023-07-22T09:31:20;6.20;;;5.63;;
45842;SDS011;31563;51.744;8.252;2023-07-22T09:33:49;5.72;;;5.10;;
45842;SDS011;31563;51.744;8.252;2023-07-22T09:36:19;6.57;;;5.87;;
45842;SDS011;31563;51.744;8.252;2023-07-22T09:38:58;7.05;;;6.03;;
45842;SDS011;31563;51.744;8.252;2023-07-22T09:41:29;7.28;;;6.32;;
45842;SDS011;31563;51.744;8.252;2023-07-22T09:44:01;6.13;;;5.38;;
45842;SDS011;31563;51.744;8.252;2023-07-22T09:46:31;8.70;;;5.80;;
45842;SDS011;31563;51.744;8.252;2023-07-22T09:49:02;5.63;;;5.13;;
45842;SDS011;31563;51.744;8.252;2023-07-22T09:51:34;6.63;;;5.80;;
45842;SDS011;31563;51.744;8.252;2023-07-22T09:54:22;6.82;;;5.50;;
45842;SDS011;31563;51.744;8.252;2023-07-22T09:56:52;6.35;;;5.75;;
45842;SDS011;31563;51.744;8.252;2023-07-22T09:59:20;6.60;;;5.28;;
45842;SDS011;31563;51.744;8.252;2023-07-22T10:04:18;5.60;;;4.63;;
45842;SDS011;31563;51.744;8.252;2023-07-22T10:06:53;7.00;;;5.30;;
45842;SDS011;31563;51.744;8.252;2023-07-22T10:09:21;6.25;;;5.57;;
45842;SDS011;31563;51.744;8.252;2023-07-22T10:11:54;5.82;;;4.80;;
45842;SDS011;31563;51.744;8.252;2023-07-22T10:14:23;5.43;;;4.93;;
45842;SDS011;31563;51.744;8.252;2023-07-22T10:16:52;6.03;;;5.38;;
45842;SDS011;31563;51.744;8.252;2023-07-22T10:19:20;8.50;;;5.85;;
45842;SDS011;31563;51.744;8.252;2023-07-22T10:21:50;7.38;;;6.07;;
45842;SDS011;31563;51.744;8.252;2023-07-22T10:24:19;6.35;;;5.03;;
45842;SDS011;31563;51.744;8.252;2023-07-22T10:26:49;6.75;;;5.45;;
45842;SDS011;31563;51.744;8.252;2023-07-22T10:29:19;5.70;;;5.20;;
45842;SDS011;31563;51.744;8.252;2023-07-22T10:31:48;6.57;;;5.63;;
45842;SDS011;31563;51.744;8.252;2023-07-22T10:34:20;6.53;;;4.82;;
45842;SDS011;31563;51.744;8.252;2023-07-22T10:39:25;5.22;;;4.30;;
45842;SDS011;31563;51.744;8.252;2023-07-22T10:42:00;5.38;;;4.45;;
45842;SDS011;31563;51.744;8.252;2023-07-22T10:44:31;5.70;;;4.70;;
45842;SDS011;31563;51.744;8.252;2023-07-22T10:47:00;4.77;;;4.37;;
45842;SDS011;31563;51.744;8.252;2023-07-22T10:49:42;5.85;;;4.25;;
45842;SDS011;31563;51.744;8.252;2023-07-22T10:52:11;5.50;;;5.00;;
45842;SDS011;31563;51.744;8.252;2023-07-22T10:57:22;4.32;;;3.95;;
45842;SDS011;31563;51.744;8.252;2023-07-22T10:59:51;4.78;;;4.32;;
45842;SDS011;31563;51.744;8.252;2023-07-22T11:02:25;4.30;;;3.90;;
45842;SDS011;31563;51.744;8.252;2023-07-22T11:04:56;5.22;;;4.22;;
45842;SDS011;31563;51.744;8.252;2023-07-22T11:07:32;3.78;;;3.40;;
45842;SDS011;31563;51.744;8.252;2023-07-22T11:10:13;5.75;;;4.18;;
45842;SDS011;31563;51.744;8.252;2023-07-22T11:12:43;4.30;;;3.90;;
45842;SDS011;31563;51.744;8.252;2023-07-22T11:15:14;4.13;;;3.47;;
45842;SDS011;31563;51.744;8.252;2023-07-22T11:17:43;4.22;;;3.83;;
45842;SDS011;31563;51.744;8.252;2023-07-22T11:20:12;4.57;;;4.05;;
45842;SDS011;31563;51.744;8.252;2023-07-22T11:22:40;4.70;;;3.97;;
45842;SDS011;31563;51.744;8.252;2023-07-22T11:25:16;3.85;;;3.45;;
45842;SDS011;31563;51.744;8.252;2023-07-22T11:27:44;4.38;;;3.97;;
45842;SDS011;31563;51.744;8.252;2023-07-22T11:30:13;4.32;;;3.92;;
45842;SDS011;31563;51.744;8.252;2023-07-22T11:32:42;5.78;;;4.05;;
45842;SDS011;31563;51.744;8.252;2023-07-22T11:35:12;4.13;;;3.70;;
45842;SDS011;31563;51.744;8.252;2023-07-22T11:37:43;4.97;;;3.80;;
45842;SDS011;31563;51.744;8.252;2023-07-22T11:40:11;4.82;;;4.35;;
45842;SDS011;31563;51.744;8.252;2023-07-22T11:42:42;4.18;;;3.78;;
45842;SDS011;31563;51.744;8.252;2023-07-22T11:45:14;5.35;;;3.90;;
45842;SDS011;31563;51.744;8.252;2023-07-22T11:47:42;4.68;;;3.60;;
45842;SDS011;31563;51.744;8.252;2023-07-22T11:50:11;4.53;;;3.75;;
45842;SDS011;31563;51.744;8.252;2023-07-22T11:52:39;4.13;;;3.40;;
45842;SDS011;31563;51.744;8.252;2023-07-22T11:55:07;5.22;;;3.63;;
45842;SDS011;31563;51.744;8.252;2023-07-22T11:57:53;3.75;;;3.45;;
45842;SDS011;31563;51.744;8.252;2023-07-22T12:00:21;3.42;;;3.13;;
45842;SDS011;31563;51.744;8.252;2023-07-22T12:02:49;3.50;;;3.20;;
45842;SDS011;31563;51.744;8.252;2023-07-22T12:05:23;3.45;;;3.00;;
45842;SDS011;31563;51.744;8.252;2023-07-22T12:07:51;3.33;;;3.00;;
45842;SDS011;31563;51.744;8.252;2023-07-22T12:10:19;4.70;;;3.20;;
45842;SDS011;31563;51.744;8.252;2023-07-22T12:12:52;4.10;;;3.38;;
45842;SDS011;31563;51.744;8.252;2023-07-22T12:15:21;3.35;;;3.13;;
45842;SDS011;31563;51.744;8.252;2023-07-22T12:17:51;4.43;;;3.58;;
45842;SDS011;31563;51.744;8.252;2023-07-22T12:20:23;3.28;;;2.97;;
45842;SDS011;31563;51.744;8.252;2023-07-22T12:22:52;3.70;;;3.03;;
45842;SDS011;31563;51.744;8.252;2023-07-22T12:25:20;3.10;;;2.85;;
45842;SDS011;31563;51.744;8.252;2023-07-22T12:27:48;3.35;;;2.53;;
45842;SDS011;31563;51.744;8.252;2023-07-22T12:30:18;3.10;;;2.63;;
45842;SDS011;31563;51.744;8.252;2023-07-22T12:32:48;2.70;;;2.50;;
45842;SDS011;31563;51.744;8.252;2023-07-22T12:35:16;3.40;;;3.10;;
45842;SDS011;31563;51.744;8.252;2023-07-22T12:37:44;3.77;;;2.60;;
45842;SDS011;31563;51.744;8.252;2023-07-22T12:40:12;3.47;;;2.77;;
45842;SDS011;31563;51.744;8.252;2023-07-22T12:42:41;3.38;;;2.83;;
45842;SDS011;31563;51.744;8.252;2023-07-22T12:45:09;3.23;;;2.93;;
45842;SDS011;31563;51.744;8.252;2023-07-22T12:47:39;3.63;;;3.30;;
45842;SDS011;31563;51.744;8.252;2023-07-22T12:50:07;3.88;;;3.05;;
45842;SDS011;31563;51.744;8.252;2023-07-22T12:52:37;4.25;;;3.50;;
45842;SDS011;31563;51.744;8.252;2023-07-22T12:55:06;3.95;;;3.40;;
45842;SDS011;31563;51.744;8.252;2023-07-22T13:00:03;4.07;;;3.40;;
45842;SDS011;31563;51.744;8.252;2023-07-22T13:02:35;3.72;;;3.15;;
45842;SDS011;31563;51.744;8.252;2023-07-22T13:05:06;4.53;;;3.28;;
45842;SDS011;31563;51.744;8.252;2023-07-22T13:07:34;3.20;;;2.90;;
45842;SDS011;31563;51.744;8.252;2023-07-22T13:10:03;3.13;;;2.83;;
45842;SDS011;31563;51.744;8.252;2023-07-22T13:12:35;4.05;;;3.70;;
45842;SDS011;31563;51.744;8.252;2023-07-22T13:15:04;4.40;;;3.38;;
45842;SDS011;31563;51.744;8.252;2023-07-22T13:20:00;8.43;;;7.63;;
45842;SDS011;31563;51.744;8.252;2023-07-22T13:24:59;4.60;;;3.90;;
45842;SDS011;31563;51.744;8.252;2023-07-22T13:27:27;3.13;;;2.83;;
45842;SDS011;31563;51.744;8.252;2023-07-22T13:29:55;3.73;;;2.73;;
45842;SDS011;31563;51.744;8.252;2023-07-22T13:32:23;3.80;;;2.50;;
45842;SDS011;31563;51.744;8.252;2023-07-22T13:34:51;2.77;;;2.43;;
45842;SDS011;31563;51.744;8.252;2023-07-22T13:37:20;2.50;;;2.30;;
45842;SDS011;31563;51.744;8.252;2023-07-22T13:39:49;2.65;;;2.45;;
45842;SDS011;31563;51.744;8.252;2023-07-22T13:42:17;2.95;;;2.50;;
45842;SDS011;31563;51.744;8.252;2023-07-22T13:44:45;2.87;;;2.40;;
45842;SDS011;31563;51.744;8.252;2023-07-22T13:47:14;3.50;;;2.40;;
45842;SDS011;31563;51.744;8.252;2023-07-22T13:49:42;2.53;;;2.30;;
45842;SDS011;31563;51.744;8.252;2023-07-22T13:52:10;2.80;;;2.20;;
45842;SDS011;31563;51.744;8.252;2023-07-22T13:54:38;3.13;;;2.33;;
45842;SDS011;31563;51.744;8.252;2023-07-22T13:57:08;2.93;;;2.20;;
45842;SDS011;31563;51.744;8.252;2023-07-22T13:59:36;2.75;;;2.40;;
45842;SDS011;31563;51.744;8.252;2023-07-22T14:02:04;3.37;;;2.60;;
45842;SDS011;31563;51.744;8.252;2023-07-22T14:04:33;2.30;;;2.10;;
45842;SDS011;31563;51.744;8.252;2023-07-22T14:07:01;3.43;;;2.00;;
45842;SDS011;31563;51.744;8.252;2023-07-22T14:09:29;2.07;;;1.80;;
45842;SDS011;31563;51.744;8.252;2023-07-22T14:11:57;4.97;;;2.40;;
45842;SDS011;31563;51.744;8.252;2023-07-22T14:14:27;2.53;;;2.20;;
45842;SDS011;31563;51.744;8.252;2023-07-22T14:16:55;2.90;;;2.33;;
45842;SDS011;31563;51.744;8.252;2023-07-22T14:19:24;3.20;;;1.47;;
45842;SDS011;31563;51.744;8.252;2023-07-22T14:21:52;2.77;;;2.10;;
45842;SDS011;31563;51.744;8.252;2023-07-22T14:24:21;2.05;;;1.80;;
45842;SDS011;31563;51.744;8.252;2023-07-22T14:26:49;2.60;;;2.40;;
45842;SDS011;31563;51.744;8.252;2023-07-22T14:29:18;2.40;;;1.93;;
45842;SDS011;31563;51.744;8.252;2023-07-22T14:31:48;2.83;;;1.80;;
45842;SDS011;31563;51.744;8.252;2023-07-22T14:34:16;2.30;;;2.10;;
45842;SDS011;31563;51.744;8.252;2023-07-22T14:36:44;3.17;;;1.80;;
45842;SDS011;31563;51.744;8.252;2023-07-22T14:39:12;1.70;;;1.60;;
45842;SDS011;31563;51.744;8.252;2023-07-22T14:41:41;2.10;;;1.70;;
45842;SDS011;31563;51.744;8.252;2023-07-22T14:44:10;2.75;;;1.63;;
45842;SDS011;31563;51.744;8.252;2023-07-22T14:46:38;2.80;;;2.60;;
45842;SDS011;31563;51.744;8.252;2023-07-22T14:49:08;5.80;;;2.10;;
45842;SDS011;31563;51.744;8.252;2023-07-22T14:51:37;2.72;;;2.00;;
45842;SDS011;31563;51.744;8.252;2023-07-22T14:54:05;2.50;;;1.83;;
45842;SDS011;31563;51.744;8.252;2023-07-22T14:56:34;1.98;;;1.67;;
45842;SDS011;31563;51.744;8.252;2023-07-22T14:59:02;2.30;;;2.10;;
45842;SDS011;31563;51.744;8.252;2023-07-22T15:01:36;2.37;;;1.87;;
45842;SDS011;31563;51.744;8.252;2023-07-22T15:04:05;2.10;;;1.60;;
45842;SDS011;31563;51.744;8.252;2023-07-22T15:06:35;2.25;;;1.75;;
45842;SDS011;31563;51.744;8.252;2023-07-22T15:09:03;2.30;;;1.73;;
45842;SDS011;31563;51.744;8.252;2023-07-22T15:11:33;2.63;;;1.60;;
45842;SDS011;31563;51.744;8.252;2023-07-22T15:14:01;3.17;;;1.50;;
45842;SDS011;31563;51.744;8.252;2023-07-22T15:16:30;2.60;;;1.70;;
45842;SDS011;31563;51.744;8.252;2023-07-22T15:18:58;2.45;;;2.22;;
45842;SDS011;31563;51.744;8.252;2023-07-22T15:21:27;1.87;;;1.67;;
45842;SDS011;31563;51.744;8.252;2023-07-22T15:23:57;3.47;;;2.20;;
45842;SDS011;31563;51.744;8.252;2023-07-22T15:26:25;2.45;;;1.88;;
45842;SDS011;31563;51.744;8.252;2023-07-22T15:28:53;3.13;;;1.83;;
45842;SDS011;31563;51.744;8.252;2023-07-22T15:31:21;1.73;;;1.57;;
45842;SDS011;31563;51.744;8.252;2023-07-22T15:33:50;1.63;;;1.48;;
45842;SDS011;31563;51.744;8.252;2023-07-22T15:36:18;2.03;;;1.63;;